createdAt,value
2022-08-05T00:04:55.561Z,100884.84
2022-08-05T00:09:56.422Z,100893.34
2022-08-05T00:14:55.312Z,100887.84
2022-08-05T00:20:02.472Z,100880.97
2022-08-05T00:25:03.409Z,100885.09
2022-08-05T00:30:11.495Z,100877.72
2022-08-05T00:35:10.951Z,100883.56
2022-08-05T00:40:12.617Z,100878.53
2022-08-05T00:45:13.562Z,100874.75
2022-08-05T00:50:12.425Z,100872.28
2022-08-05T00:55:13.863Z,100872.94
2022-08-05T01:00:16.936Z,100875.09
2022-08-05T01:05:15.962Z,100868.78
2022-08-05T01:10:19.702Z,100869.53
2022-08-05T01:15:36.166Z,100870.75
2022-08-05T01:20:42.512Z,100868.88
2022-08-05T01:26:02.294Z,100867.59
2022-08-05T01:31:05.943Z,100869.84
2022-08-05T01:36:13.135Z,100869.25
2022-08-05T01:41:18.180Z,100868.06
2022-08-05T01:46:42.119Z,100873.47
2022-08-05T01:51:43.895Z,100873.47
2022-08-05T01:58:12.973Z,100883.25
2022-08-05T02:02:15.998Z,100872.34
2022-08-05T02:07:21.856Z,100867.53
2022-08-05T02:12:29.015Z,100867.97
2022-08-05T02:18:32.173Z,100879.91
2022-08-05T02:23:02.534Z,100880.66
2022-08-05T02:28:08.797Z,100879.00
2022-08-05T02:33:11.491Z,100873.94
2022-08-05T02:38:19.333Z,100881.41
2022-08-05T02:43:20.937Z,100882.81
2022-08-05T02:48:29.569Z,100878.59
2022-08-05T02:53:38.961Z,100886.25
2022-08-05T02:58:43.745Z,100878.50
2022-08-05T03:04:08.847Z,100884.28
2022-08-05T03:09:04.275Z,100885.03
2022-08-05T03:14:04.245Z,100891.47
2022-08-05T03:19:17.080Z,100890.81
2022-08-05T03:24:29.657Z,100889.88
2022-08-05T03:29:45.808Z,100900.19
2022-08-05T03:34:54.146Z,100895.38
2022-08-05T03:40:01.691Z,100894.31
2022-08-05T03:45:22.144Z,100892.19
2022-08-05T03:50:23.598Z,100899.34
2022-08-05T03:56:04.209Z,100903.59
2022-08-05T04:00:54.470Z,100906.47
2022-08-05T04:05:55.673Z,100901.22
2022-08-05T04:10:57.649Z,100898.00
2022-08-05T04:16:04.412Z,100892.41
2022-08-05T04:21:07.013Z,100890.75
2022-08-05T04:26:10.355Z,100892.66
2022-08-05T04:31:15.247Z,100887.09
2022-08-05T04:36:49.431Z,100885.72
2022-08-05T04:41:37.621Z,100892.66
2022-08-05T04:46:37.778Z,100896.31
2022-08-05T04:51:38.587Z,100894.59
2022-08-05T04:56:37.909Z,100892.19
2022-08-05T05:02:08.118Z,100896.25
2022-08-05T05:06:57.642Z,100889.25
2022-08-05T05:12:01.708Z,100892.91
2022-08-05T05:17:03.318Z,100890.13
2022-08-05T05:22:22.645Z,100883.28
2022-08-05T05:27:23.392Z,100885.06
2022-08-05T05:32:22.534Z,100867.09
2022-08-05T05:37:23.167Z,100872.44
2022-08-05T05:42:36.167Z,100870.97
2022-08-05T05:48:06.292Z,100879.34
2022-08-05T05:52:56.492Z,100877.75
2022-08-05T05:57:56.278Z,100878.78
2022-08-05T06:03:02.434Z,100883.56
2022-08-05T06:08:03.969Z,100882.31
2022-08-05T06:13:02.878Z,100883.91
2022-08-05T06:18:01.934Z,100886.72
2022-08-05T06:23:02.106Z,100884.69
2022-08-05T06:28:12.583Z,100885.41
2022-08-05T06:33:20.555Z,100878.66
2022-08-05T06:38:47.025Z,100870.47
2022-08-05T06:43:59.303Z,100868.53
2022-08-05T06:49:01.149Z,100869.06
2022-08-05T06:54:03.484Z,100861.06
2022-08-05T06:59:02.377Z,100872.53
2022-08-05T07:04:03.008Z,100872.25
2022-08-05T07:09:04.204Z,100871.25
2022-08-05T07:14:29.345Z,100872.44
2022-08-05T07:24:57.955Z,100868.91
2022-08-05T07:30:27.399Z,100861.63
2022-08-05T07:36:02.249Z,100868.56
2022-08-05T07:40:44.601Z,100862.63
2022-08-05T07:45:58.118Z,100863.78
2022-08-05T07:50:57.592Z,100859.56
2022-08-05T07:57:01.412Z,100850.28
2022-08-05T08:01:52.147Z,100860.38
2022-08-05T08:06:59.196Z,100866.94
2022-08-05T08:12:05.607Z,100850.44
2022-08-05T08:17:11.557Z,100861.13
2022-08-05T08:22:15.859Z,100867.88
2022-08-05T08:27:17.114Z,100856.13
2022-08-05T08:32:18.656Z,100853.44
2022-08-05T08:37:27.968Z,100854.50
2022-08-05T08:42:34.585Z,100843.38
2022-08-05T08:48:11.865Z,100831.16
2022-08-05T08:53:18.131Z,100829.38
2022-08-05T08:58:25.996Z,100830.00
2022-08-05T09:03:25.950Z,100829.00
2022-08-05T09:08:40.250Z,100820.72
2022-08-05T09:14:00.864Z,100817.25
2022-08-05T09:19:00.315Z,100804.97
2022-08-05T09:24:08.802Z,100795.94
2022-08-05T09:29:10.682Z,100784.72
2022-08-05T09:34:19.450Z,100780.38
2022-08-05T09:39:23.233Z,100780.94
2022-08-05T09:44:37.113Z,100774.25
2022-08-05T09:49:54.661Z,100772.66
2022-08-05T09:55:55.239Z,100770.94
2022-08-05T10:00:26.030Z,100763.53
2022-08-05T10:05:27.538Z,100760.97
2022-08-05T10:11:44.890Z,100746.03
2022-08-05T10:17:03.560Z,100754.34
2022-08-05T10:22:29.774Z,100741.22
2022-08-05T10:28:13.411Z,100735.34
2022-08-05T10:33:14.658Z,100731.25
2022-08-05T10:38:15.874Z,100728.47
2022-08-05T10:43:37.290Z,100722.69
2022-08-05T10:49:01.485Z,100715.75
2022-08-05T10:54:29.860Z,100706.28
2022-08-05T11:00:04.323Z,100691.44
2022-08-05T11:04:57.124Z,100694.94
2022-08-05T11:10:03.951Z,100690.03
2022-08-05T11:15:19.857Z,100681.13
2022-08-05T11:20:58.022Z,100691.75
2022-08-05T11:26:09.004Z,100682.75
2022-08-05T11:31:56.969Z,100675.78
2022-08-05T11:38:28.421Z,100670.38
2022-08-05T11:44:04.762Z,100660.34
2022-08-05T11:48:57.023Z,100659.88
2022-08-05T11:54:40.728Z,100657.31
2022-08-05T12:00:38.985Z,100652.69
2022-08-05T12:05:45.293Z,100652.31
2022-08-05T12:10:47.205Z,100658.28
2022-08-05T12:16:58.152Z,100652.59
2022-08-05T12:27:54.831Z,100642.56
2022-08-05T12:32:56.321Z,100637.53
2022-08-05T12:37:56.086Z,100635.78
2022-08-05T12:42:57.089Z,100640.22
2022-08-05T12:48:01.277Z,100638.06
2022-08-05T12:53:17.927Z,100642.63
2022-08-05T12:58:52.570Z,100626.13
2022-08-05T13:03:48.674Z,100627.66
2022-08-05T13:08:52.443Z,100616.25
2022-08-05T13:14:06.008Z,100616.66
2022-08-05T13:19:05.686Z,100614.09
2022-08-05T13:24:05.636Z,100608.25
2022-08-05T13:29:06.511Z,100606.09
2022-08-05T13:34:21.944Z,100599.59
2022-08-05T13:40:16.647Z,100607.88
2022-08-05T13:44:46.403Z,100595.75
2022-08-05T13:49:46.567Z,100591.31
2022-08-05T13:54:53.500Z,100587.06
2022-08-05T13:59:55.512Z,100584.69
2022-08-05T14:05:15.417Z,100578.59
2022-08-05T14:10:31.093Z,100564.03
2022-08-05T14:16:05.260Z,100560.31
2022-08-05T14:20:54.300Z,100552.97
2022-08-05T14:25:54.556Z,100548.53
2022-08-05T14:30:58.405Z,100545.47
2022-08-05T14:35:57.208Z,100545.22
2022-08-05T14:40:57.314Z,100539.41
2022-08-05T14:45:56.053Z,100532.50
2022-08-05T14:50:56.537Z,100523.81
2022-08-05T14:55:55.293Z,100521.41
2022-08-05T15:00:59.226Z,100521.94
2022-08-05T15:06:07.739Z,100512.50
2022-08-05T15:11:14.059Z,100518.47
2022-08-05T15:16:26.221Z,100512.31
2022-08-05T15:21:26.709Z,100508.41
2022-08-05T15:26:32.113Z,100509.03
2022-08-05T15:31:34.738Z,100503.50
2022-08-05T15:36:35.392Z,100509.22
2022-08-05T15:41:56.230Z,100498.88
2022-08-05T15:46:53.030Z,100510.06
2022-08-05T15:52:03.924Z,100505.22
2022-08-05T15:57:13.092Z,100505.88
2022-08-05T16:02:14.452Z,100505.91
2022-08-05T16:07:21.408Z,100506.28
2022-08-05T16:12:21.834Z,100507.63
2022-08-05T16:17:20.681Z,100501.63
2022-08-05T16:22:27.391Z,100507.56
2022-08-05T16:27:32.356Z,100497.19
2022-08-05T16:32:46.079Z,100495.66
2022-08-05T16:38:03.420Z,100499.00
2022-08-05T16:43:05.785Z,100500.00
2022-08-05T16:48:06.256Z,100500.16
2022-08-05T16:53:12.250Z,100510.81
2022-08-05T16:58:21.573Z,100512.09
2022-08-05T17:03:24.278Z,100522.13
2022-08-05T17:08:36.423Z,100514.97
2022-08-05T17:13:43.223Z,100510.78
2022-08-05T17:18:42.610Z,100520.63
2022-08-05T17:24:03.079Z,100516.09
2022-08-05T17:29:09.890Z,100517.56
2022-08-05T17:34:09.201Z,100527.81
2022-08-05T17:39:24.528Z,100536.63
2022-08-05T17:44:32.453Z,100532.50
2022-08-05T17:50:00.002Z,100540.75
2022-08-05T17:54:51.825Z,100532.84
2022-08-05T18:00:03.092Z,100543.47
2022-08-05T18:05:06.990Z,100552.09
2022-08-05T18:10:10.306Z,100551.81
2022-08-05T18:15:10.907Z,100557.09
2022-08-05T18:20:14.897Z,100561.75
2022-08-05T18:25:16.943Z,100568.19
2022-08-05T18:30:15.998Z,100571.91
2022-08-05T18:35:16.344Z,100571.31
2022-08-05T18:40:34.030Z,100573.34
2022-08-05T18:45:41.732Z,100582.13
2022-08-05T18:51:01.636Z,100580.41
2022-08-05T18:56:21.719Z,100589.06
2022-08-05T19:01:33.371Z,100591.25
2022-08-05T19:06:45.164Z,100592.50
2022-08-05T19:12:00.986Z,100588.50
2022-08-05T19:17:00.306Z,100587.13
2022-08-05T19:21:59.134Z,100591.31
2022-08-05T19:26:59.363Z,100578.84
2022-08-05T19:32:03.147Z,100587.41
2022-08-05T19:37:03.109Z,100580.44
2022-08-05T19:42:07.143Z,100586.47
2022-08-05T19:47:07.925Z,100593.31
2022-08-05T19:52:31.542Z,100589.44
2022-08-05T19:57:47.486Z,100594.81
2022-08-05T20:02:47.814Z,100596.34
2022-08-05T20:07:49.057Z,100593.84
2022-08-05T20:12:49.602Z,100582.13
2022-08-05T20:17:48.934Z,100585.91
2022-08-05T20:22:49.348Z,100575.47
2022-08-05T20:27:49.642Z,100580.94
2022-08-05T20:32:48.859Z,100588.53
2022-08-05T20:38:06.291Z,100582.03
2022-08-05T20:43:07.762Z,100574.06
2022-08-05T20:48:07.314Z,100573.81
2022-08-05T20:53:07.241Z,100569.72
2022-08-05T20:58:16.547Z,100572.03
2022-08-05T21:03:16.749Z,100567.38
2022-08-05T21:08:19.482Z,100567.22
2022-08-05T21:13:26.430Z,100562.31
2022-08-05T21:18:38.596Z,100555.09
2022-08-05T21:23:43.956Z,100569.13
2022-08-05T21:28:50.885Z,100571.91
2022-08-05T21:33:49.856Z,100571.25
2022-08-05T21:38:48.678Z,100566.00
2022-08-05T21:44:01.683Z,100559.97
2022-08-05T21:49:07.115Z,100563.97
2022-08-05T21:54:06.271Z,100559.75
2022-08-05T21:59:22.494Z,100558.84
2022-08-05T22:04:25.340Z,100553.00
2022-08-05T22:09:24.441Z,100559.72
2022-08-05T22:14:44.664Z,100562.03
2022-08-05T22:20:00.104Z,100559.50
2022-08-05T22:25:27.268Z,100560.34
2022-08-05T22:30:35.144Z,100559.13
2022-08-05T22:35:47.999Z,100555.97
2022-08-05T22:40:49.336Z,100557.69
2022-08-05T22:45:50.363Z,100560.66
2022-08-05T22:50:56.251Z,100553.16
2022-08-05T22:55:56.581Z,100548.81
2022-08-05T23:00:57.683Z,100555.53
2022-08-05T23:05:56.915Z,100555.75
2022-08-05T23:10:57.106Z,100548.88
2022-08-05T23:15:58.068Z,100556.81
2022-08-05T23:20:57.177Z,100550.97
2022-08-05T23:25:57.118Z,100553.28
2022-08-05T23:30:57.155Z,100554.72
2022-08-05T23:36:15.473Z,100556.19
2022-08-05T23:41:14.335Z,100557.22
2022-08-05T23:46:20.003Z,100545.16
2022-08-05T23:51:20.696Z,100547.03
2022-08-05T23:56:27.194Z,100550.59
